There are multiple Weather-warnings   Click here for more information


Meteo18 Weather Cam more information Meteo18 Weather Cam


Thunder radar more information blitzortung!


warning for Snow/Ice more information rain snow radar


Visit our other weather sites:

Template documentation
and downloads

And another site



Weather Underground History page Text

Daily Summary for November 24, 2017 Units:  Both    English   Metric
« Previous Day
Next Day »
Daily Weekly Monthly Yearly Custom
  High: Low: Average:
Temperature: TemperatureC °F /  -17.8 °C 8.6 °F /  -13 °C 11 °F /  -11.7 °C
Dew Point: DewpointC °F /  -17.8 °C 6.4 °F /  -14.2 °C 9.3 °F /  -12.6 °C
Humidity: Humidity % 77 % 89 %
Wind Speed: WindSpeedKMH mph /  0 km/h - 6.1 mph /  9.8 km/h
Wind Gust: WindSpeedGustKMH mph /  0 km/h - -
Wind:- - SW
Pressure: PressurehPa in /  0 hPa 1012.4 in /  34279.9 hPa -
Precipitation: 6.1 in /  154.94 mm    
Historical Graphs
 
 
Tabular Data for November 24, 2017
Time Temperature Dew Point Pressure Wind Wind Speed Wind Gust Humidity Rainfall Rate (Hourly)
TemperatureC °F /  -17.8 °C DewpointC °F /  -17.8 °C PressurehPa in /  0 hPa Calm     Humidity % HourlyPrecipMM in /  0 mm
00:02 10.9 °F /  -11.7 °C 7.6 °F /  -13.6 °C 1013.8 in /  34327.3 hPa SSW 1.6 mph /  2.6 km/h 4.8 mph /  7.7 km/h 80 % 0.0 in /  0 mm
00:07 10.9 °F /  -11.7 °C 7.6 °F /  -13.6 °C 1013.8 in /  34327.3 hPa SW 4.8 mph /  7.7 km/h 4.8 mph /  7.7 km/h 80 % 0.0 in /  0 mm
00:12 10.9 °F /  -11.7 °C 7.6 °F /  -13.6 °C 1014.1 in /  34337.4 hPa SSW 1.6 mph /  2.6 km/h 4.8 mph /  7.7 km/h 80 % 0.0 in /  0 mm
00:17 11.0 °F /  -11.7 °C 7.7 °F /  -13.5 °C 1013.8 in /  34327.3 hPa SSW 3.2 mph /  5.1 km/h 4.8 mph /  7.7 km/h 80 % 0.0 in /  0 mm
00:27 10.9 °F /  -11.7 °C 7.6 °F /  -13.6 °C 1013.8 in /  34327.3 hPa Calm   4.8 mph /  7.7 km/h 80 % 0.0 in /  0 mm
00:32 10.8 °F /  -11.8 °C 7.5 °F /  -13.6 °C 1013.8 in /  34327.3 hPa SSW 1.6 mph /  2.6 km/h 4.8 mph /  7.7 km/h 80 % 0.0 in /  0 mm
00:47 10.4 °F /  -12 °C 7.6 °F /  -13.6 °C 1013.8 in /  34327.3 hPa SW 1.6 mph /  2.6 km/h 3.2 mph /  5.1 km/h 83 % 0.0 in /  0 mm
01:12 11.0 °F /  -11.7 °C 8.4 °F /  -13.1 °C 1013.1 in /  34303.6 hPa SW 6.4 mph /  10.3 km/h 9.7 mph /  15.6 km/h 84 % 0.0 in /  0 mm
01:17 11.1 °F /  -11.6 °C 8.7 °F /  -12.9 °C 1013.4 in /  34313.7 hPa SW 9.7 mph /  15.6 km/h 9.7 mph /  15.6 km/h 85 % 0.0 in /  0 mm
01:22 11.3 °F /  -11.5 °C 8.7 °F /  -12.9 °C 1013.4 in /  34313.7 hPa SSW 9.7 mph /  15.6 km/h 11.3 mph /  18.2 km/h 84 % 0.0 in /  0 mm
01:37 11.7 °F /  -11.3 °C 8.9 °F /  -12.8 °C 1013.1 in /  34303.6 hPa SW 8.0 mph /  12.9 km/h 16.1 mph /  25.9 km/h 83 % 0.0 in /  0 mm
01:42 11.7 °F /  -11.3 °C 8.9 °F /  -12.8 °C 1013.1 in /  34303.6 hPa SSW 6.4 mph /  10.3 km/h 16.1 mph /  25.9 km/h 83 % 0.0 in /  0 mm
01:47 11.7 °F /  -11.3 °C 8.9 °F /  -12.8 °C 1013.1 in /  34303.6 hPa SSW 4.8 mph /  7.7 km/h 12.9 mph /  20.8 km/h 83 % 0.0 in /  0 mm
01:57 11.7 °F /  -11.3 °C 9.1 °F /  -12.7 °C 1013.1 in /  34303.6 hPa SSW 4.8 mph /  7.7 km/h 9.7 mph /  15.6 km/h 84 % 0.0 in /  0 mm
02:02 11.7 °F /  -11.3 °C 9.1 °F /  -12.7 °C 1013.1 in /  34303.6 hPa SW 8.0 mph /  12.9 km/h 9.7 mph /  15.6 km/h 84 % 0.0 in /  0 mm
02:07 11.7 °F /  -11.3 °C 8.9 °F /  -12.8 °C 1013.1 in /  34303.6 hPa South 4.8 mph /  7.7 km/h 12.9 mph /  20.8 km/h 83 % 0.0 in /  0 mm
02:12 11.6 °F /  -11.3 °C 8.8 °F /  -12.9 °C 1013.1 in /  34303.6 hPa South 3.2 mph /  5.1 km/h 12.9 mph /  20.8 km/h 83 % 0.0 in /  0 mm
02:22 11.3 °F /  -11.5 °C 8.7 °F /  -12.9 °C 1013.1 in /  34303.6 hPa SSW 3.2 mph /  5.1 km/h 12.9 mph /  20.8 km/h 84 % 0.0 in /  0 mm
02:42 10.7 °F /  -11.8 °C 8.5 °F /  -13.1 °C 1013.1 in /  34303.6 hPa SSW 1.6 mph /  2.6 km/h 8.0 mph /  12.9 km/h 86 % 0.0 in /  0 mm
02:47 10.6 °F /  -11.9 °C 8.4 °F /  -13.1 °C 1013.1 in /  34303.6 hPa South 3.2 mph /  5.1 km/h 8.0 mph /  12.9 km/h 86 % 0.0 in /  0 mm
03:02 10.5 °F /  -11.9 °C 8.3 °F /  -13.2 °C 1013.1 in /  34303.6 hPa SSW 3.2 mph /  5.1 km/h 8.0 mph /  12.9 km/h 86 % 0.0 in /  0 mm
03:12 10.2 °F /  -12.1 °C 8.0 °F /  -13.3 °C 1013.1 in /  34303.6 hPa SSW 3.2 mph /  5.1 km/h 6.4 mph /  10.3 km/h 86 % 0.0 in /  0 mm
03:17 10.1 °F /  -12.2 °C 8.0 °F /  -13.3 °C 1012.8 in /  34293.4 hPa SSE 3.2 mph /  5.1 km/h 6.4 mph /  10.3 km/h 87 % 0.0 in /  0 mm
03:52 9.7 °F /  -12.4 °C 7.6 °F /  -13.6 °C 1012.4 in /  34279.9 hPa SSW 1.6 mph /  2.6 km/h 6.4 mph /  10.3 km/h 87 % 0.0 in /  0 mm
04:02 9.5 °F /  -12.5 °C 7.4 °F /  -13.7 °C 1012.4 in /  34279.9 hPa SW 3.2 mph /  5.1 km/h 6.4 mph /  10.3 km/h 87 % 0.0 in /  0 mm
04:17 9.3 °F /  -12.6 °C 7.1 °F /  -13.8 °C 1012.4 in /  34279.9 hPa South 3.2 mph /  5.1 km/h 4.8 mph /  7.7 km/h 86 % 0.0 in /  0 mm
04:22 9.3 °F /  -12.6 °C 7.2 °F /  -13.8 °C 1012.4 in /  34279.9 hPa Calm   6.4 mph /  10.3 km/h 87 % 0.0 in /  0 mm
04:32 9.0 °F /  -12.8 °C 7.0 °F /  -13.9 °C 1012.8 in /  34293.4 hPa SSW 1.6 mph /  2.6 km/h 6.4 mph /  10.3 km/h 87 % 0.0 in /  0 mm
04:42 9.1 °F /  -12.7 °C 7.2 °F /  -13.8 °C 1012.4 in /  34279.9 hPa SSW 1.6 mph /  2.6 km/h 4.8 mph /  7.7 km/h 88 % 0.0 in /  0 mm
04:52 9.3 °F /  -12.6 °C 7.2 °F /  -13.8 °C 1012.4 in /  34279.9 hPa Calm   3.2 mph /  5.1 km/h 87 % 0.0 in /  0 mm
04:57 9.4 °F /  -12.6 °C 7.3 °F /  -13.7 °C 1012.4 in /  34279.9 hPa SSW 1.6 mph /  2.6 km/h 3.2 mph /  5.1 km/h 87 % 0.0 in /  0 mm
05:02 9.5 °F /  -12.5 °C 7.3 °F /  -13.7 °C 1012.4 in /  34279.9 hPa SSW 3.2 mph /  5.1 km/h 3.2 mph /  5.1 km/h 86 % 0.0 in /  0 mm
05:07 9.6 °F /  -12.4 °C 7.4 °F /  -13.7 °C 1012.4 in /  34279.9 hPa SSW 1.6 mph /  2.6 km/h 3.2 mph /  5.1 km/h 86 % 0.0 in /  0 mm
05:12 9.7 °F /  -12.4 °C 7.5 °F /  -13.6 °C 1012.8 in /  34293.4 hPa SSW 1.6 mph /  2.6 km/h 3.2 mph /  5.1 km/h 86 % 0.0 in /  0 mm
05:22 9.7 °F /  -12.4 °C 7.5 °F /  -13.6 °C 1012.4 in /  34279.9 hPa SSW 1.6 mph /  2.6 km/h 3.2 mph /  5.1 km/h 86 % 0.0 in /  0 mm
05:32 9.6 °F /  -12.4 °C 7.4 °F /  -13.7 °C 1012.4 in /  34279.9 hPa SSW 1.6 mph /  2.6 km/h 3.2 mph /  5.1 km/h 86 % 0.0 in /  0 mm
05:42 9.3 °F /  -12.6 °C 7.1 °F /  -13.8 °C 1012.4 in /  34279.9 hPa Calm   3.2 mph /  5.1 km/h 86 % 0.0 in /  0 mm
05:47 9.2 °F /  -12.7 °C 7.1 °F /  -13.8 °C 1012.4 in /  34279.9 hPa SSW 1.6 mph /  2.6 km/h 3.2 mph /  5.1 km/h 87 % 0.0 in /  0 mm
05:57 9.1 °F /  -12.7 °C 6.9 °F /  -13.9 °C 1012.4 in /  34279.9 hPa South 1.6 mph /  2.6 km/h 4.8 mph /  7.7 km/h 86 % 0.0 in /  0 mm
06:02 8.9 °F /  -12.8 °C 6.7 °F /  -14.1 °C 1012.4 in /  34279.9 hPa SSW 1.6 mph /  2.6 km/h 4.8 mph /  7.7 km/h 86 % 0.0 in /  0 mm
06:12 8.8 °F /  -12.9 °C 6.6 °F /  -14.1 °C 1012.8 in /  34293.4 hPa SSW 1.6 mph /  2.6 km/h 6.4 mph /  10.3 km/h 86 % 0.0 in /  0 mm
06:17 8.6 °F /  -13 °C 6.4 °F /  -14.2 °C 1012.8 in /  34293.4 hPa SSW 1.6 mph /  2.6 km/h 4.8 mph /  7.7 km/h 86 % 0.0 in /  0 mm
06:22 8.9 °F /  -12.8 °C 6.9 °F /  -13.9 °C 1012.4 in /  34279.9 hPa SW 1.6 mph /  2.6 km/h 4.8 mph /  7.7 km/h 87 % 0.0 in /  0 mm
06:27 9.1 °F /  -12.7 °C 6.9 °F /  -13.9 °C 1012.8 in /  34293.4 hPa South 1.6 mph /  2.6 km/h 6.4 mph /  10.3 km/h 86 % 0.0 in /  0 mm
06:32 9.3 °F /  -12.6 °C 7.1 °F /  -13.8 °C 1012.8 in /  34293.4 hPa South 3.2 mph /  5.1 km/h 6.4 mph /  10.3 km/h 86 % 0.0 in /  0 mm
06:42 9.3 °F /  -12.6 °C 6.7 °F /  -14.1 °C 1012.8 in /  34293.4 hPa Calm   6.4 mph /  10.3 km/h 84 % 0.0 in /  0 mm
06:47 9.3 °F /  -12.6 °C 6.9 °F /  -13.9 °C 1012.8 in /  34293.4 hPa Calm   6.4 mph /  10.3 km/h 85 % 0.0 in /  0 mm
06:57 9.4 °F /  -12.6 °C 7.2 °F /  -13.8 °C 1012.4 in /  34279.9 hPa SSE 1.6 mph /  2.6 km/h 6.4 mph /  10.3 km/h 86 % 0.0 in /  0 mm
07:02 9.6 °F /  -12.4 °C 7.2 °F /  -13.8 °C 1012.8 in /  34293.4 hPa Calm   6.4 mph /  10.3 km/h 85 % 0.0 in /  0 mm
07:17 9.6 °F /  -12.4 °C 7.2 °F /  -13.8 °C 1012.8 in /  34293.4 hPa Calm   3.2 mph /  5.1 km/h 85 % 0.0 in /  0 mm
07:32 10.1 °F /  -12.2 °C 7.5 °F /  -13.6 °C 1012.8 in /  34293.4 hPa Calm   3.2 mph /  5.1 km/h 84 % 0.0 in /  0 mm
07:42 10.3 °F /  -12.1 °C 7.5 °F /  -13.6 °C 1012.8 in /  34293.4 hPa South 1.6 mph /  2.6 km/h 3.2 mph /  5.1 km/h 83 % 0.0 in /  0 mm
07:47 10.3 °F /  -12.1 °C 7.5 °F /  -13.6 °C 1012.8 in /  34293.4 hPa South 1.6 mph /  2.6 km/h 3.2 mph /  5.1 km/h 83 % 0.0 in /  0 mm
07:52 10.2 °F /  -12.1 °C 7.4 °F /  -13.7 °C 1012.8 in /  34293.4 hPa SSW 3.2 mph /  5.1 km/h 3.2 mph /  5.1 km/h 83 % 0.0 in /  0 mm
08:02 11.0 °F /  -11.7 °C 7.9 °F /  -13.4 °C 1013.1 in /  34303.6 hPa SW 6.4 mph /  10.3 km/h 6.4 mph /  10.3 km/h 81 % 0.0 in /  0 mm
08:17 11.8 °F /  -11.2 °C 8.1 °F /  -13.3 °C 1013.4 in /  34313.7 hPa WSW 8.0 mph /  12.9 km/h 19.3 mph /  31.1 km/h 78 % 0.0 in /  0 mm
08:22 11.9 °F /  -11.2 °C 8.2 °F /  -13.2 °C 1013.4 in /  34313.7 hPa SW 11.3 mph /  18.2 km/h 19.3 mph /  31.1 km/h 78 % 0.0 in /  0 mm
08:27 12.0 °F /  -11.1 °C 8.1 °F /  -13.3 °C 1013.1 in /  34303.6 hPa SW 9.7 mph /  15.6 km/h 19.3 mph /  31.1 km/h 77 % 0.0 in /  0 mm
08:32 12.1 °F /  -11.1 °C 8.2 °F /  -13.2 °C 1013.4 in /  34313.7 hPa SW 6.4 mph /  10.3 km/h 19.3 mph /  31.1 km/h 77 % 0.0 in /  0 mm
08:57 12.0 °F /  -11.1 °C 8.7 °F /  -12.9 °C 1013.8 in /  34327.3 hPa SSW 11.3 mph /  18.2 km/h 17.7 mph /  28.5 km/h 80 % 0.0 in /  0 mm
09:07 12.2 °F /  -11 °C 9.2 °F /  -12.7 °C 1013.8 in /  34327.3 hPa WSW 11.3 mph /  18.2 km/h 24.1 mph /  38.8 km/h 82 % 0.0 in /  0 mm
09:12 12.3 °F /  -10.9 °C 9.3 °F /  -12.6 °C 1013.8 in /  34327.3 hPa SW 6.4 mph /  10.3 km/h 24.1 mph /  38.8 km/h 82 % 0.0 in /  0 mm
09:22 12.3 °F /  -10.9 °C 9.5 °F /  -12.5 °C 1013.8 in /  34327.3 hPa West 4.8 mph /  7.7 km/h 24.1 mph /  38.8 km/h 83 % 0.0 in /  0 mm
09:42 12.4 °F /  -10.9 °C 9.9 °F /  -12.3 °C 1013.8 in /  34327.3 hPa WSW 9.7 mph /  15.6 km/h 19.3 mph /  31.1 km/h 85 % 0.0 in /  0 mm
09:52 12.4 °F /  -10.9 °C 9.9 °F /  -12.3 °C 1014.1 in /  34337.4 hPa SW 19.3 mph /  31.1 km/h 20.9 mph /  33.6 km/h 85 % 0.0 in /  0 mm
10:02 12.4 °F /  -10.9 °C 10.1 °F /  -12.2 °C 1014.4 in /  34347.6 hPa WSW 9.7 mph /  15.6 km/h 20.9 mph /  33.6 km/h 86 % 0.0 in /  0 mm
10:07 12.4 °F /  -10.9 °C 10.1 °F /  -12.2 °C 1014.4 in /  34347.6 hPa SSW 9.7 mph /  15.6 km/h 20.9 mph /  33.6 km/h 86 % 0.0 in /  0 mm
10:17 12.4 °F /  -10.9 °C 10.3 °F /  -12.1 °C 1014.4 in /  34347.6 hPa WSW 4.8 mph /  7.7 km/h 20.9 mph /  33.6 km/h 87 % 0.0 in /  0 mm
10:22 12.4 °F /  -10.9 °C 10.3 °F /  -12.1 °C 1014.4 in /  34347.6 hPa WSW 8.0 mph /  12.9 km/h 20.9 mph /  33.6 km/h 87 % 0.0 in /  0 mm
10:32 12.3 °F /  -10.9 °C 10.2 °F /  -12.1 °C 1014.4 in /  34347.6 hPa SSW 9.7 mph /  15.6 km/h 16.1 mph /  25.9 km/h 87 % 0.0 in /  0 mm
10:42 12.3 °F /  -10.9 °C 10.4 °F /  -12 °C 1014.4 in /  34347.6 hPa SSW 8.0 mph /  12.9 km/h 17.7 mph /  28.5 km/h 88 % 0.0 in /  0 mm
10:52 12.3 °F /  -10.9 °C 10.5 °F /  -11.9 °C 1014.8 in /  34361.1 hPa SSW 8.0 mph /  12.9 km/h 16.1 mph /  25.9 km/h 89 % 0.0 in /  0 mm
11:02 12.4 °F /  -10.9 °C 10.6 °F /  -11.9 °C 1014.4 in /  34347.6 hPa SSW 8.0 mph /  12.9 km/h 17.7 mph /  28.5 km/h 89 % 0.0 in /  0 mm
11:07 12.5 °F /  -10.8 °C 10.7 °F /  -11.8 °C 1014.8 in /  34361.1 hPa SW 12.9 mph /  20.8 km/h 17.7 mph /  28.5 km/h 89 % 0.0 in /  0 mm
11:12 12.6 °F /  -10.8 °C 10.7 °F /  -11.8 °C 1014.8 in /  34361.1 hPa WSW 9.7 mph /  15.6 km/h 17.7 mph /  28.5 km/h 88 % 0.0 in /  0 mm
11:17 12.6 °F /  -10.8 °C 10.7 °F /  -11.8 °C 1014.8 in /  34361.1 hPa SSW 11.3 mph /  18.2 km/h 17.7 mph /  28.5 km/h 88 % 0.0 in /  0 mm
11:22 12.7 °F /  -10.7 °C 10.8 °F /  -11.8 °C 1014.8 in /  34361.1 hPa SW 20.9 mph /  33.6 km/h 20.9 mph /  33.6 km/h 88 % 0.0 in /  0 mm
11:32 12.7 °F /  -10.7 °C 10.8 °F /  -11.8 °C 1014.8 in /  34361.1 hPa WSW 9.7 mph /  15.6 km/h 25.7 mph /  41.4 km/h 88 % 0.0 in /  0 mm
11:42 12.7 °F /  -10.7 °C 10.8 °F /  -11.8 °C 1015.1 in /  34371.3 hPa SW 1.6 mph /  2.6 km/h 20.9 mph /  33.6 km/h 88 % 0.0 in /  0 mm
11:47 12.7 °F /  -10.7 °C 10.8 °F /  -11.8 °C 1014.8 in /  34361.1 hPa SW 8.0 mph /  12.9 km/h 20.9 mph /  33.6 km/h 88 % 0.0 in /  0 mm
11:52 12.8 °F /  -10.7 °C 10.9 °F /  -11.7 °C 1014.8 in /  34361.1 hPa SW 8.0 mph /  12.9 km/h 20.9 mph /  33.6 km/h 88 % 0.0 in /  0 mm
12:02 12.8 °F /  -10.7 °C 10.9 °F /  -11.7 °C 1014.8 in /  34361.1 hPa SW 11.3 mph /  18.2 km/h 20.9 mph /  33.6 km/h 88 % 0.0 in /  0 mm
12:12 12.7 °F /  -10.7 °C 10.8 °F /  -11.8 °C 1014.8 in /  34361.1 hPa SW 9.7 mph /  15.6 km/h 19.3 mph /  31.1 km/h 88 % 0.0 in /  0 mm
12:17 12.7 °F /  -10.7 °C 10.8 °F /  -11.8 °C 1015.1 in /  34371.3 hPa SW 17.7 mph /  28.5 km/h 17.7 mph /  28.5 km/h 88 % 0.0 in /  0 mm
12:22 12.7 °F /  -10.7 °C 10.8 °F /  -11.8 °C 1014.8 in /  34361.1 hPa SW 8.0 mph /  12.9 km/h 17.7 mph /  28.5 km/h 88 % 0.0 in /  0 mm
12:32 12.7 °F /  -10.7 °C 10.8 °F /  -11.8 °C 1015.1 in /  34371.3 hPa SW 9.7 mph /  15.6 km/h 19.3 mph /  31.1 km/h 88 % 0.0 in /  0 mm
12:42 12.7 °F /  -10.7 °C 10.8 °F /  -11.8 °C 1015.1 in /  34371.3 hPa WSW 11.3 mph /  18.2 km/h 20.9 mph /  33.6 km/h 88 % 0.0 in /  0 mm
12:47 12.7 °F /  -10.7 °C 10.9 °F /  -11.7 °C 1015.1 in /  34371.3 hPa SSW 9.7 mph /  15.6 km/h 22.5 mph /  36.2 km/h 89 % 0.0 in /  0 mm
12:52 12.7 °F /  -10.7 °C 10.9 °F /  -11.7 °C 1014.8 in /  34361.1 hPa SSW 9.7 mph /  15.6 km/h 22.5 mph /  36.2 km/h 89 % 0.0 in /  0 mm
12:57 12.7 °F /  -10.7 °C 10.9 °F /  -11.7 °C 1014.8 in /  34361.1 hPa SSW 4.8 mph /  7.7 km/h 22.5 mph /  36.2 km/h 89 % 0.0 in /  0 mm
13:02 12.7 °F /  -10.7 °C 10.9 °F /  -11.7 °C 1014.8 in /  34361.1 hPa SSW 9.7 mph /  15.6 km/h 22.5 mph /  36.2 km/h 89 % 0.0 in /  0 mm
13:12 12.6 °F /  -10.8 °C 10.8 °F /  -11.8 °C 1014.8 in /  34361.1 hPa SW 9.7 mph /  15.6 km/h 19.3 mph /  31.1 km/h 89 % 0.0 in /  0 mm
13:17 12.6 °F /  -10.8 °C 11.0 °F /  -11.7 °C 1014.8 in /  34361.1 hPa SW 4.8 mph /  7.7 km/h 19.3 mph /  31.1 km/h 90 % 0.0 in /  0 mm
13:22 12.6 °F /  -10.8 °C 11.0 °F /  -11.7 °C 1015.1 in /  34371.3 hPa SW 9.7 mph /  15.6 km/h 19.3 mph /  31.1 km/h 90 % 0.0 in /  0 mm
13:27 12.6 °F /  -10.8 °C 11.0 °F /  -11.7 °C 1014.8 in /  34361.1 hPa SSW 9.7 mph /  15.6 km/h 16.1 mph /  25.9 km/h 90 % 0.0 in /  0 mm
13:32 12.6 °F /  -10.8 °C 11.0 °F /  -11.7 °C 1014.8 in /  34361.1 hPa SW 11.3 mph /  18.2 km/h 16.1 mph /  25.9 km/h 90 % 0.0 in /  0 mm
13:42 12.6 °F /  -10.8 °C 11.0 °F /  -11.7 °C 1014.8 in /  34361.1 hPa SW 9.7 mph /  15.6 km/h 22.5 mph /  36.2 km/h 90 % 0.0 in /  0 mm
13:47 12.7 °F /  -10.7 °C 11.1 °F /  -11.6 °C 1014.8 in /  34361.1 hPa SW 14.5 mph /  23.3 km/h 20.9 mph /  33.6 km/h 90 % 0.0 in /  0 mm
13:52 12.7 °F /  -10.7 °C 10.9 °F /  -11.7 °C 1014.8 in /  34361.1 hPa SW 12.9 mph /  20.8 km/h 20.9 mph /  33.6 km/h 89 % 0.0 in /  0 mm
14:02 12.6 °F /  -10.8 °C 10.8 °F /  -11.8 °C 1014.8 in /  34361.1 hPa WSW 24.1 mph /  38.8 km/h 24.1 mph /  38.8 km/h 89 % 0.0 in /  0 mm
14:12 12.6 °F /  -10.8 °C 11.0 °F /  -11.7 °C 1014.8 in /  34361.1 hPa SW 17.7 mph /  28.5 km/h 29.0 mph /  46.7 km/h 90 % 0.0 in /  0 mm
14:17 12.4 °F /  -10.9 °C 10.8 °F /  -11.8 °C 1014.8 in /  34361.1 hPa SW 20.9 mph /  33.6 km/h 29.0 mph /  46.7 km/h 90 % 0.0 in /  0 mm
14:27 12.3 °F /  -10.9 °C 10.7 °F /  -11.8 °C 1014.8 in /  34361.1 hPa SW 19.3 mph /  31.1 km/h 25.7 mph /  41.4 km/h 90 % 0.0 in /  0 mm
14:32 12.3 °F /  -10.9 °C 10.7 °F /  -11.8 °C 1014.8 in /  34361.1 hPa SW 16.1 mph /  25.9 km/h 25.7 mph /  41.4 km/h 90 % 0.0 in /  0 mm
14:42 12.2 °F /  -11 °C 10.8 °F /  -11.8 °C 1014.4 in /  34347.6 hPa WSW 12.9 mph /  20.8 km/h 25.7 mph /  41.4 km/h 91 % 0.0 in /  0 mm
14:47 12.2 °F /  -11 °C 10.8 °F /  -11.8 °C 1014.8 in /  34361.1 hPa WSW 12.9 mph /  20.8 km/h 25.7 mph /  41.4 km/h 91 % 0.0 in /  0 mm
14:52 12.2 °F /  -11 °C 10.6 °F /  -11.9 °C 1014.8 in /  34361.1 hPa SW 12.9 mph /  20.8 km/h 25.7 mph /  41.4 km/h 90 % 0.0 in /  0 mm
15:02 12.2 °F /  -11 °C 10.8 °F /  -11.8 °C 1014.8 in /  34361.1 hPa SW 8.0 mph /  12.9 km/h 24.1 mph /  38.8 km/h 91 % 0.0 in /  0 mm
15:12 12.1 °F /  -11.1 °C 10.7 °F /  -11.8 °C 1014.8 in /  34361.1 hPa SSW 11.3 mph /  18.2 km/h 24.1 mph /  38.8 km/h 91 % 0.0 in /  0 mm
15:17 12.1 °F /  -11.1 °C 10.7 °F /  -11.8 °C 1014.8 in /  34361.1 hPa WSW 14.5 mph /  23.3 km/h 24.1 mph /  38.8 km/h 91 % 0.0 in /  0 mm
15:22 12.1 °F /  -11.1 °C 10.7 °F /  -11.8 °C 1014.8 in /  34361.1 hPa SW 14.5 mph /  23.3 km/h 24.1 mph /  38.8 km/h 91 % 0.0 in /  0 mm
15:32 12.1 °F /  -11.1 °C 10.7 °F /  -11.8 °C 1014.8 in /  34361.1 hPa South 11.3 mph /  18.2 km/h 24.1 mph /  38.8 km/h 91 % 0.0 in /  0 mm
15:42 12.0 °F /  -11.1 °C 10.6 °F /  -11.9 °C 1014.8 in /  34361.1 hPa SSW 9.7 mph /  15.6 km/h 22.5 mph /  36.2 km/h 91 % 0.0 in /  0 mm
15:47 11.9 °F /  -11.2 °C 10.6 °F /  -11.9 °C 1014.8 in /  34361.1 hPa SSW 11.3 mph /  18.2 km/h 22.5 mph /  36.2 km/h 92 % 0.0 in /  0 mm
15:52 11.9 °F /  -11.2 °C 10.6 °F /  -11.9 °C 1014.8 in /  34361.1 hPa SW 9.7 mph /  15.6 km/h 22.5 mph /  36.2 km/h 92 % 0.0 in /  0 mm
16:02 11.8 °F /  -11.2 °C 10.5 °F /  -11.9 °C 1014.8 in /  34361.1 hPa SW 16.1 mph /  25.9 km/h 19.3 mph /  31.1 km/h 92 % 0.0 in /  0 mm
16:12 11.8 °F /  -11.2 °C 10.7 °F /  -11.8 °C 1014.8 in /  34361.1 hPa SW 9.7 mph /  15.6 km/h 19.3 mph /  31.1 km/h 93 % 0.0 in /  0 mm
16:17 11.7 °F /  -11.3 °C 10.6 °F /  -11.9 °C 1014.8 in /  34361.1 hPa SW 16.1 mph /  25.9 km/h 19.3 mph /  31.1 km/h 93 % 0.0 in /  0 mm
16:22 11.7 °F /  -11.3 °C 10.6 °F /  -11.9 °C 1014.8 in /  34361.1 hPa SSW 6.4 mph /  10.3 km/h 19.3 mph /  31.1 km/h 93 % 0.0 in /  0 mm
16:32 11.6 °F /  -11.3 °C 10.5 °F /  -11.9 °C 1014.4 in /  34347.6 hPa SSW 12.9 mph /  20.8 km/h 16.1 mph /  25.9 km/h 93 % 0.0 in /  0 mm
16:42 11.4 °F /  -11.4 °C 10.5 °F /  -11.9 °C 1014.4 in /  34347.6 hPa SW 11.3 mph /  18.2 km/h 14.5 mph /  23.3 km/h 94 % 0.0 in /  0 mm
16:52 11.4 °F /  -11.4 °C 10.5 °F /  -11.9 °C 1014.8 in /  34361.1 hPa SSW 14.5 mph /  23.3 km/h 19.3 mph /  31.1 km/h 94 % 0.0 in /  0 mm
16:57 11.3 °F /  -11.5 °C 10.4 °F /  -12 °C 1014.4 in /  34347.6 hPa SW 11.3 mph /  18.2 km/h 19.3 mph /  31.1 km/h 94 % 0.0 in /  0 mm
17:02 11.3 °F /  -11.5 °C 10.4 °F /  -12 °C 1014.4 in /  34347.6 hPa South 8.0 mph /  12.9 km/h 19.3 mph /  31.1 km/h 94 % 0.0 in /  0 mm
17:12 11.2 °F /  -11.6 °C 10.3 °F /  -12.1 °C 1014.4 in /  34347.6 hPa SW 6.4 mph /  10.3 km/h 16.1 mph /  25.9 km/h 94 % 0.0 in /  0 mm
17:17 11.2 °F /  -11.6 °C 10.3 °F /  -12.1 °C 1014.8 in /  34361.1 hPa SSW 6.4 mph /  10.3 km/h 11.3 mph /  18.2 km/h 94 % 0.0 in /  0 mm
17:22 11.2 °F /  -11.6 °C 10.3 °F /  -12.1 °C 1014.8 in /  34361.1 hPa SW 6.4 mph /  10.3 km/h 11.3 mph /  18.2 km/h 94 % 0.0 in /  0 mm
17:27 11.1 °F /  -11.6 °C 10.2 °F /  -12.1 °C 1014.8 in /  34361.1 hPa SSW 4.8 mph /  7.7 km/h 14.5 mph /  23.3 km/h 94 % 0.0 in /  0 mm
17:32 11.1 °F /  -11.6 °C 10.3 °F /  -12.1 °C 1014.8 in /  34361.1 hPa SW 6.4 mph /  10.3 km/h 14.5 mph /  23.3 km/h 95 % 0.0 in /  0 mm
17:37 11.1 °F /  -11.6 °C 10.3 °F /  -12.1 °C 1014.8 in /  34361.1 hPa SSW 4.8 mph /  7.7 km/h 14.5 mph /  23.3 km/h 95 % 0.0 in /  0 mm
17:42 11.0 °F /  -11.7 °C 10.2 °F /  -12.1 °C 1015.1 in /  34371.3 hPa SSW 6.4 mph /  10.3 km/h 14.5 mph /  23.3 km/h 95 % 0.0 in /  0 mm
17:47 10.9 °F /  -11.7 °C 10.1 °F /  -12.2 °C 1014.8 in /  34361.1 hPa SSW 4.8 mph /  7.7 km/h 9.7 mph /  15.6 km/h 95 % 0.0 in /  0 mm
17:57 10.9 °F /  -11.7 °C 10.1 °F /  -12.2 °C 1015.1 in /  34371.3 hPa SW 3.2 mph /  5.1 km/h 9.7 mph /  15.6 km/h 95 % 0.0 in /  0 mm
18:02 10.9 °F /  -11.7 °C 10.1 °F /  -12.2 °C 1015.1 in /  34371.3 hPa SSW 6.4 mph /  10.3 km/h 9.7 mph /  15.6 km/h 95 % 0.0 in /  0 mm
18:12 10.9 °F /  -11.7 °C 10.1 °F /  -12.2 °C 1015.1 in /  34371.3 hPa SW 6.4 mph /  10.3 km/h 11.3 mph /  18.2 km/h 95 % 0.0 in /  0 mm
18:17 10.9 °F /  -11.7 °C 10.1 °F /  -12.2 °C 1015.1 in /  34371.3 hPa SSE 3.2 mph /  5.1 km/h 11.3 mph /  18.2 km/h 95 % 0.0 in /  0 mm
18:22 10.9 °F /  -11.7 °C 10.1 °F /  -12.2 °C 1015.1 in /  34371.3 hPa SW 6.4 mph /  10.3 km/h 11.3 mph /  18.2 km/h 95 % 0.0 in /  0 mm
18:27 10.9 °F /  -11.7 °C 10.1 °F /  -12.2 °C 1015.1 in /  34371.3 hPa SSW 4.8 mph /  7.7 km/h 11.3 mph /  18.2 km/h 95 % 0.0 in /  0 mm
18:32 10.9 °F /  -11.7 °C 10.1 °F /  -12.2 °C 1015.1 in /  34371.3 hPa SW 4.8 mph /  7.7 km/h 9.7 mph /  15.6 km/h 95 % 0.0 in /  0 mm
18:42 10.9 °F /  -11.7 °C 10.1 °F /  -12.2 °C 1014.8 in /  34361.1 hPa SSW 6.4 mph /  10.3 km/h 9.7 mph /  15.6 km/h 95 % 0.0 in /  0 mm
18:52 10.9 °F /  -11.7 °C 10.1 °F /  -12.2 °C 1015.1 in /  34371.3 hPa SW 6.4 mph /  10.3 km/h 9.7 mph /  15.6 km/h 95 % 0.0 in /  0 mm
18:57 10.9 °F /  -11.7 °C 10.1 °F /  -12.2 °C 1015.1 in /  34371.3 hPa SW 4.8 mph /  7.7 km/h 11.3 mph /  18.2 km/h 95 % 0.0 in /  0 mm
19:02 10.8 °F /  -11.8 °C 10.0 °F /  -12.2 °C 1015.1 in /  34371.3 hPa SSW 1.6 mph /  2.6 km/h 11.3 mph /  18.2 km/h 95 % 0.0 in /  0 mm
19:12 10.8 °F /  -11.8 °C 10.0 °F /  -12.2 °C 1014.8 in /  34361.1 hPa SSW 6.4 mph /  10.3 km/h 8.0 mph /  12.9 km/h 95 % 0.0 in /  0 mm
19:17 10.8 °F /  -11.8 °C 10.0 °F /  -12.2 °C 1015.1 in /  34371.3 hPa South 3.2 mph /  5.1 km/h 9.7 mph /  15.6 km/h 95 % 0.0 in /  0 mm
19:22 10.9 °F /  -11.7 °C 10.1 °F /  -12.2 °C 1015.1 in /  34371.3 hPa SW 11.3 mph /  18.2 km/h 11.3 mph /  18.2 km/h 95 % 0.0 in /  0 mm
19:32 10.8 °F /  -11.8 °C 10.0 °F /  -12.2 °C 1014.8 in /  34361.1 hPa SSW 3.2 mph /  5.1 km/h 11.3 mph /  18.2 km/h 95 % 0.0 in /  0 mm
19:42 10.7 °F /  -11.8 °C 9.9 °F /  -12.3 °C 1014.8 in /  34361.1 hPa SSW 4.8 mph /  7.7 km/h 11.3 mph /  18.2 km/h 95 % 0.0 in /  0 mm
19:52 10.7 °F /  -11.8 °C 9.9 °F /  -12.3 °C 1015.1 in /  34371.3 hPa SW 4.8 mph /  7.7 km/h 8.0 mph /  12.9 km/h 95 % 0.0 in /  0 mm
20:02 10.7 °F /  -11.8 °C 10.1 °F /  -12.2 °C 1014.8 in /  34361.1 hPa SSW 4.8 mph /  7.7 km/h 8.0 mph /  12.9 km/h 96 % 0.3 in /  7.62 mm
20:12 10.7 °F /  -11.8 °C 10.1 °F /  -12.2 °C 1014.8 in /  34361.1 hPa SW 6.4 mph /  10.3 km/h 6.4 mph /  10.3 km/h 96 % 1.3 in /  33.02 mm
20:22 10.8 °F /  -11.8 °C 10.2 °F /  -12.1 °C 1015.1 in /  34371.3 hPa WSW 9.7 mph /  15.6 km/h 14.5 mph /  23.3 km/h 96 % 2.0 in /  50.8 mm
20:32 10.9 °F /  -11.7 °C 10.3 °F /  -12.1 °C 1014.8 in /  34361.1 hPa SW 1.6 mph /  2.6 km/h 12.9 mph /  20.8 km/h 96 % 2.3 in /  58.42 mm
20:37 10.9 °F /  -11.7 °C 10.3 °F /  -12.1 °C 1014.8 in /  34361.1 hPa WSW 6.4 mph /  10.3 km/h 12.9 mph /  20.8 km/h 96 % 2.3 in /  58.42 mm
20:42 10.9 °F /  -11.7 °C 10.3 °F /  -12.1 °C 1014.8 in /  34361.1 hPa WSW 6.4 mph /  10.3 km/h 12.9 mph /  20.8 km/h 96 % 2.5 in /  63.5 mm
20:47 10.9 °F /  -11.7 °C 10.3 °F /  -12.1 °C 1014.8 in /  34361.1 hPa SW 3.2 mph /  5.1 km/h 12.9 mph /  20.8 km/h 96 % 2.5 in /  63.5 mm
20:52 10.8 °F /  -11.8 °C 10.2 °F /  -12.1 °C 1014.8 in /  34361.1 hPa WSW 4.8 mph /  7.7 km/h 12.9 mph /  20.8 km/h 96 % 2.8 in /  71.12 mm
20:57 10.8 °F /  -11.8 °C 10.2 °F /  -12.1 °C 1014.8 in /  34361.1 hPa WSW 3.2 mph /  5.1 km/h 8.0 mph /  12.9 km/h 96 % 2.8 in /  71.12 mm
21:02 10.8 °F /  -11.8 °C 10.2 °F /  -12.1 °C 1014.8 in /  34361.1 hPa SW 1.6 mph /  2.6 km/h 8.0 mph /  12.9 km/h 96 % 2.8 in /  71.12 mm
21:12 10.8 °F /  -11.8 °C 10.2 °F /  -12.1 °C 1014.8 in /  34361.1 hPa WSW 1.6 mph /  2.6 km/h 9.7 mph /  15.6 km/h 96 % 1.5 in /  38.1 mm
21:17 10.7 °F /  -11.8 °C 10.1 °F /  -12.2 °C 1014.8 in /  34361.1 hPa Calm   9.7 mph /  15.6 km/h 96 % 1.3 in /  33.02 mm
21:22 10.7 °F /  -11.8 °C 10.1 °F /  -12.2 °C 1014.8 in /  34361.1 hPa WSW 1.6 mph /  2.6 km/h 9.7 mph /  15.6 km/h 96 % 0.8 in /  20.32 mm
21:32 10.7 °F /  -11.8 °C 10.1 °F /  -12.2 °C 1014.8 in /  34361.1 hPa WSW 3.2 mph /  5.1 km/h 4.8 mph /  7.7 km/h 96 % 0.5 in /  12.7 mm
21:37 10.7 °F /  -11.8 °C 10.1 °F /  -12.2 °C 1014.4 in /  34347.6 hPa Calm   4.8 mph /  7.7 km/h 96 % 0.8 in /  20.32 mm
21:47 10.6 °F /  -11.9 °C 10.0 °F /  -12.2 °C 1014.4 in /  34347.6 hPa West 1.6 mph /  2.6 km/h 4.8 mph /  7.7 km/h 96 % 0.5 in /  12.7 mm
21:52 10.6 °F /  -11.9 °C 10.0 °F /  -12.2 °C 1014.4 in /  34347.6 hPa WNW 3.2 mph /  5.1 km/h 4.8 mph /  7.7 km/h 96 % 0.5 in /  12.7 mm
22:02 10.6 °F /  -11.9 °C 10.0 °F /  -12.2 °C 1014.4 in /  34347.6 hPa Calm   4.8 mph /  7.7 km/h 96 % 0.5 in /  12.7 mm
22:07 10.6 °F /  -11.9 °C 10.0 °F /  -12.2 °C 1014.4 in /  34347.6 hPa Calm   4.8 mph /  7.7 km/h 96 % 0.5 in /  12.7 mm
22:12 10.5 °F /  -11.9 °C 9.9 °F /  -12.3 °C 1014.4 in /  34347.6 hPa Calm   3.2 mph /  5.1 km/h 96 % 0.5 in /  12.7 mm
22:17 10.4 °F /  -12 °C 9.8 °F /  -12.3 °C 1014.4 in /  34347.6 hPa Calm   3.2 mph /  5.1 km/h 96 % 0.5 in /  12.7 mm
22:22 10.4 °F /  -12 °C 9.8 °F /  -12.3 °C 1014.4 in /  34347.6 hPa Calm   3.2 mph /  5.1 km/h 96 % 0.5 in /  12.7 mm
22:32 10.4 °F /  -12 °C 9.8 °F /  -12.3 °C 1014.4 in /  34347.6 hPa Calm   1.6 mph /  2.6 km/h 96 % 0.8 in /  20.32 mm
22:42 10.3 °F /  -12.1 °C 9.7 °F /  -12.4 °C 1014.4 in /  34347.6 hPa Calm   4.8 mph /  7.7 km/h 96 % 0.8 in /  20.32 mm
22:47 10.2 °F /  -12.1 °C 9.6 °F /  -12.4 °C 1014.4 in /  34347.6 hPa WSW 1.6 mph /  2.6 km/h 4.8 mph /  7.7 km/h 96 % 1.0 in /  25.4 mm
22:52 10.0 °F /  -12.2 °C 9.2 °F /  -12.7 °C 1014.4 in /  34347.6 hPa West 4.8 mph /  7.7 km/h 4.8 mph /  7.7 km/h 95 % 1.0 in /  25.4 mm
23:02 9.8 °F /  -12.3 °C 9.0 °F /  -12.8 °C 1014.4 in /  34347.6 hPa WNW 3.2 mph /  5.1 km/h 6.4 mph /  10.3 km/h 95 % 1.0 in /  25.4 mm
23:07 9.7 °F /  -12.4 °C 8.8 °F /  -12.9 °C 1014.4 in /  34347.6 hPa Calm   6.4 mph /  10.3 km/h 94 % 1.3 in /  33.02 mm
23:12 9.6 °F /  -12.4 °C 8.4 °F /  -13.1 °C 1014.4 in /  34347.6 hPa West 4.8 mph /  7.7 km/h 6.4 mph /  10.3 km/h 92 % 1.3 in /  33.02 mm
23:22 9.4 °F /  -12.6 °C 8.0 °F /  -13.3 °C 1014.4 in /  34347.6 hPa NNW 4.8 mph /  7.7 km/h 11.3 mph /  18.2 km/h 91 % 1.3 in /  33.02 mm
23:27 9.3 °F /  -12.6 °C 7.9 °F /  -13.4 °C 1014.1 in /  34337.4 hPa NW 3.2 mph /  5.1 km/h 11.3 mph /  18.2 km/h 91 % 1.3 in /  33.02 mm
23:37 9.1 °F /  -12.7 °C 7.7 °F /  -13.5 °C 1014.1 in /  34337.4 hPa Calm   8.0 mph /  12.9 km/h 91 % 1.5 in /  38.1 mm
23:42 9.1 °F /  -12.7 °C 7.9 °F /  -13.4 °C 1013.8 in /  34327.3 hPa Calm   8.0 mph /  12.9 km/h 92 % 1.8 in /  45.72 mm
23:47 9.0 °F /  -12.8 °C 7.8 °F /  -13.4 °C 1013.8 in /  34327.3 hPa Calm   3.2 mph /  5.1 km/h 92 % 1.8 in /  45.72 mm
23:57 8.8 °F /  -12.9 °C 7.7 °F /  -13.5 °C 1013.8 in /  34327.3 hPa Calm   1.6 mph /  2.6 km/h 93 % 1.5 in /  38.1 mm
Meteo18
Compliments of Weather Underground - 4 mb

Script developed by  Jim McMurry - jmcmurry@mwt.net Adapted for the template by  Wim van der Kuil - Leuven-Template.eu

You find our weather info also at:

European Weather Network

Weather Underground

Equipment we use:

Weather-station
Davis Vue

Weather-program
Meteobridge

Weather-server
Raspberry PI 2 B+

Provider
1 and 1

Davis Vue

Meteobridge

Raspberry PI 2 B+

1 and 1